Time;durP1;ratioP1;P1;durP2;ratioP2;P2;SDS_P1;SDS_P2;PMS_P1;PMS_P2;Temp;Humidity;BMP_temperature;BMP_pressure;BME280_temperature;BME280_humidity;BME280_pressure;Samples;Min_cycle;Max_cycle;Signal;HPM_P1;HPM_P2
2022/03/29 00:00:53;;;;;;;12.20;9.10;;;;;;;;;;5025830;28;20041;-67
2022/03/29 00:03:20;;;;;;;15.38;9.65;;;;;;;;;;5051449;28;20052;-67
2022/03/29 00:05:47;;;;;;;13.55;8.45;;;;;;;;;;5051529;28;20049;-67
2022/03/29 00:08:13;;;;;;;15.52;9.52;;;;;;;;;;5051672;28;20049;-67
2022/03/29 00:10:40;;;;;;;15.10;9.82;;;;;;;;;;5051437;28;20045;-67
2022/03/29 00:13:07;;;;;;;16.00;10.30;;;;;;;;;;5051351;28;20048;-68
2022/03/29 00:15:34;;;;;;;13.95;8.35;;;;;;;;;;5033744;28;20053;-67
2022/03/29 00:18:00;;;;;;;18.20;9.32;;;;;;;;;;5031548;28;20099;-68
2022/03/29 00:20:27;;;;;;;18.38;9.57;;;;;;;;;;5031764;28;20412;-68
2022/03/29 00:22:54;;;;;;;16.55;9.07;;;;;;;;;;5031361;28;20053;-68
2022/03/29 00:25:21;;;;;;;16.52;9.85;;;;;;;;;;5031298;28;20426;-68
2022/03/29 00:27:49;;;;;;;16.27;8.27;;;;;;;;;;5033509;28;20056;-68
2022/03/29 00:30:16;;;;;;;14.00;8.70;;;;;;;;;;5051095;28;20057;-68
2022/03/29 00:32:46;;;;;;;14.10;8.90;;;;;;;;;;5051056;28;20049;-68
2022/03/29 00:35:13;;;;;;;13.63;8.63;;;;;;;;;;5051403;28;20411;-68
2022/03/29 00:37:41;;;;;;;14.80;8.57;;;;;;;;;;5051255;28;20056;-68
2022/03/29 00:40:09;;;;;;;16.40;8.63;;;;;;;;;;5027919;28;20412;-68
2022/03/29 00:42:36;;;;;;;14.35;9.07;;;;;;;;;;5013676;28;20397;-67
2022/03/29 00:45:04;;;;;;;13.43;8.98;;;;;;;;;;5031026;28;20053;-68
2022/03/29 00:47:31;;;;;;;12.20;8.35;;;;;;;;;;5031318;28;20439;-68
2022/03/29 00:49:57;;;;;;;17.42;9.10;;;;;;;;;;5013816;28;20092;-68
2022/03/29 00:52:24;;;;;;;12.98;8.45;;;;;;;;;;5031062;28;20057;-68
2022/03/29 00:54:50;;;;;;;13.55;8.80;;;;;;;;;;5009961;28;20393;-68
2022/03/29 00:57:18;;;;;;;11.50;8.05;;;;;;;;;;5033341;28;20072;-68
2022/03/29 00:59:46;;;;;;;13.73;9.10;;;;;;;;;;5050882;28;20045;-68
2022/03/29 01:02:13;;;;;;;15.50;8.40;;;;;;;;;;5033557;28;20053;-67
2022/03/29 01:04:55;;;;;;;14.38;8.35;;;;;;;;;;5053051;28;20523;-66
2022/03/29 01:07:22;;;;;;;15.37;8.97;;;;;;;;;;5036999;28;20052;-66
2022/03/29 01:09:49;;;;;;;16.67;9.13;;;;;;;;;;5036838;28;20088;-67
2022/03/29 01:12:16;;;;;;;12.43;8.77;;;;;;;;;;5054091;28;20102;-67
2022/03/29 01:14:42;;;;;;;12.80;8.65;;;;;;;;;;5036884;28;20053;-67
2022/03/29 01:19:54;;;;;;;13.43;8.02;;;;;;;;;;5054431;28;20049;-67
2022/03/29 01:22:21;;;;;;;14.90;9.25;;;;;;;;;;5025026;28;20065;-67
2022/03/29 01:24:47;;;;;;;13.90;8.73;;;;;;;;;;5016985;28;20053;-68
2022/03/29 01:27:14;;;;;;;12.50;8.00;;;;;;;;;;5016858;28;20049;-67
2022/03/29 01:29:41;;;;;;;12.65;8.13;;;;;;;;;;5016867;28;20108;-67
2022/03/29 01:32:09;;;;;;;14.25;8.45;;;;;;;;;;5033993;28;20504;-67
2022/03/29 01:34:40;;;;;;;14.13;8.43;;;;;;;;;;5034162;28;20281;-67
2022/03/29 01:37:06;;;;;;;13.50;8.40;;;;;;;;;;5034090;28;20045;-67
2022/03/29 01:39:33;;;;;;;12.90;8.43;;;;;;;;;;5034475;28;20111;-67
2022/03/29 01:42:00;;;;;;;12.88;8.48;;;;;;;;;;5033957;28;20046;-68
2022/03/29 01:44:27;;;;;;;15.80;9.40;;;;;;;;;;5033943;28;20053;-68
2022/03/29 01:46:53;;;;;;;10.85;7.82;;;;;;;;;;5033992;28;20080;-68
2022/03/29 01:49:20;;;;;;;12.80;8.23;;;;;;;;;;5033768;28;20049;-68
2022/03/29 01:51:47;;;;;;;17.00;8.65;;;;;;;;;;5034057;28;20049;-68
2022/03/29 01:54:14;;;;;;;13.80;8.88;;;;;;;;;;5058429;22;20052;-67
2022/03/29 01:56:41;;;;;;;12.52;8.30;;;;;;;;;;5059315;28;20048;-67
2022/03/29 01:59:08;;;;;;;15.18;9.30;;;;;;;;;;5093632;28;20060;-67
2022/03/29 02:01:42;;;;;;;13.82;8.60;;;;;;;;;;5042314;28;20071;-67
2022/03/29 02:04:09;;;;;;;13.85;9.05;;;;;;;;;;5059520;28;20132;-67
2022/03/29 02:06:36;;;;;;;18.58;8.68;;;;;;;;;;5093657;28;20055;-67
2022/03/29 02:09:06;;;;;;;19.13;9.13;;;;;;;;;;5055842;28;20045;-67
2022/03/29 02:11:36;;;;;;;13.70;8.73;;;;;;;;;;5054802;28;20129;-67
2022/03/29 02:14:03;;;;;;;17.60;8.90;;;;;;;;;;5071958;28;20056;-67
2022/03/29 02:16:30;;;;;;;15.95;8.82;;;;;;;;;;5073352;28;20056;-67
2022/03/29 02:18:56;;;;;;;19.13;9.43;;;;;;;;;;5055382;28;20056;-67
2022/03/29 02:21:23;;;;;;;16.00;9.63;;;;;;;;;;5075348;28;20048;-67
2022/03/29 02:23:50;;;;;;;12.75;9.15;;;;;;;;;;5093642;28;20052;-67
2022/03/29 02:26:17;;;;;;;13.95;9.30;;;;;;;;;;5075671;28;20473;-67
2022/03/29 02:28:43;;;;;;;12.57;8.15;;;;;;;;;;5075612;28;20060;-68
2022/03/29 02:31:10;;;;;;;12.60;7.82;;;;;;;;;;5041984;28;20048;-68
2022/03/29 02:33:37;;;;;;;14.45;8.57;;;;;;;;;;5075032;28;20131;-68
2022/03/29 02:36:07;;;;;;;14.00;8.60;;;;;;;;;;5075147;28;20487;-68
2022/03/29 02:38:34;;;;;;;14.57;9.27;;;;;;;;;;5043099;28;20047;-68
2022/03/29 02:41:00;;;;;;;13.18;7.72;;;;;;;;;;5074881;28;20043;-68
2022/03/29 02:43:27;;;;;;;12.65;8.30;;;;;;;;;;5092946;28;20044;-68
2022/03/29 02:45:53;;;;;;;12.20;8.07;;;;;;;;;;5074954;28;20059;-68
2022/03/29 02:48:20;;;;;;;12.35;7.80;;;;;;;;;;5075221;28;20460;-67
2022/03/29 02:50:47;;;;;;;13.13;8.25;;;;;;;;;;5092949;28;20418;-67
2022/03/29 02:53:15;;;;;;;15.10;9.35;;;;;;;;;;5093225;28;20442;-67
2022/03/29 02:55:42;;;;;;;15.52;9.98;;;;;;;;;;5074977;28;20103;-69
2022/03/29 02:58:09;;;;;;;17.70;8.82;;;;;;;;;;5058318;28;20056;-68
2022/03/29 03:00:36;;;;;;;15.55;9.55;;;;;;;;;;5057938;28;20044;-68
2022/03/29 03:03:03;;;;;;;14.25;9.23;;;;;;;;;;5058358;28;20047;-67
2022/03/29 03:05:30;;;;;;;14.32;9.45;;;;;;;;;;5074582;28;20062;-67
2022/03/29 03:07:57;;;;;;;12.73;8.68;;;;;;;;;;5092838;28;20101;-67
2022/03/29 03:10:25;;;;;;;13.80;8.68;;;;;;;;;;5074541;28;20048;-68
2022/03/29 03:12:52;;;;;;;12.10;7.93;;;;;;;;;;5058087;28;20077;-68
2022/03/29 03:15:21;;;;;;;15.23;9.55;;;;;;;;;;5092184;28;20044;-68
2022/03/29 03:17:50;;;;;;;12.13;8.48;;;;;;;;;;5074837;28;20051;-68
2022/03/29 03:20:17;;;;;;;14.63;8.80;;;;;;;;;;5074445;28;20044;-68
2022/03/29 03:22:44;;;;;;;15.18;8.48;;;;;;;;;;5073973;28;20494;-68
2022/03/29 03:25:12;;;;;;;11.93;8.40;;;;;;;;;;5074539;28;20056;-68
2022/03/29 03:27:40;;;;;;;15.88;8.50;;;;;;;;;;5074016;28;20079;-68
2022/03/29 03:30:11;;;;;;;15.02;8.60;;;;;;;;;;5058535;28;20117;-68
2022/03/29 03:32:39;;;;;;;14.57;9.02;;;;;;;;;;5091775;28;20048;-68
2022/03/29 03:35:06;;;;;;;16.02;9.20;;;;;;;;;;5057648;28;20647;-68
2022/03/29 03:37:33;;;;;;;14.15;9.13;;;;;;;;;;5074233;28;20101;-68
2022/03/29 03:40:00;;;;;;;13.25;8.88;;;;;;;;;;5074207;28;20048;-68
2022/03/29 03:42:27;;;;;;;13.75;8.65;;;;;;;;;;5057421;28;20563;-68
2022/03/29 03:44:54;;;;;;;12.77;7.95;;;;;;;;;;5073435;28;20048;-68
2022/03/29 03:47:21;;;;;;;14.13;8.43;;;;;;;;;;5074072;28;20050;-68
2022/03/29 03:49:48;;;;;;;17.02;9.07;;;;;;;;;;5092029;28;20101;-68
2022/03/29 03:52:14;;;;;;;16.70;9.95;;;;;;;;;;5091351;28;20055;-68
2022/03/29 03:54:41;;;;;;;17.98;8.80;;;;;;;;;;5091531;28;20048;-68
2022/03/29 03:57:08;;;;;;;17.27;10.90;;;;;;;;;;5073794;28;20097;-68
2022/03/29 03:59:34;;;;;;;18.08;9.90;;;;;;;;;;5074586;28;20052;-68
2022/03/29 04:02:02;;;;;;;17.30;9.63;;;;;;;;;;5057061;28;20051;-68
2022/03/29 04:04:30;;;;;;;18.52;9.77;;;;;;;;;;5091406;28;20052;-68
2022/03/29 04:06:56;;;;;;;13.57;8.75;;;;;;;;;;5040945;28;20056;-68
2022/03/29 04:09:27;;;;;;;15.05;9.10;;;;;;;;;;5074793;28;20121;-68
2022/03/29 04:11:53;;;;;;;18.80;9.50;;;;;;;;;;5058145;28;20078;-68
2022/03/29 04:14:20;;;;;;;12.35;8.82;;;;;;;;;;5073787;28;20048;-68
2022/03/29 04:16:47;;;;;;;15.48;9.32;;;;;;;;;;5091928;28;20044;-68
2022/03/29 04:19:13;;;;;;;19.10;10.13;;;;;;;;;;5091527;28;20048;-68
2022/03/29 04:21:40;;;;;;;12.63;8.52;;;;;;;;;;5090762;28;20040;-68
2022/03/29 04:24:07;;;;;;;16.90;9.82;;;;;;;;;;5073444;28;20051;-67
2022/03/29 04:26:33;;;;;;;18.65;8.98;;;;;;;;;;5073871;28;20498;-67
2022/03/29 04:29:00;;;;;;;13.35;9.68;;;;;;;;;;5091662;28;20423;-67
2022/03/29 04:31:27;;;;;;;14.40;8.80;;;;;;;;;;5091799;28;20119;-67
2022/03/29 04:33:54;;;;;;;16.15;8.60;;;;;;;;;;5071192;28;20052;-68
2022/03/29 04:36:20;;;;;;;17.77;9.38;;;;;;;;;;5069482;28;20456;-67
2022/03/29 04:38:47;;;;;;;15.70;8.82;;;;;;;;;;5074604;28;20044;-67
2022/03/29 04:41:14;;;;;;;16.65;9.18;;;;;;;;;;5060640;28;20395;-67
2022/03/29 04:43:41;;;;;;;16.30;8.95;;;;;;;;;;5077278;28;20055;-67
2022/03/29 04:46:07;;;;;;;15.45;8.88;;;;;;;;;;5077711;28;20109;-67
2022/03/29 04:48:34;;;;;;;15.65;9.57;;;;;;;;;;5060703;28;20052;-67
2022/03/29 04:51:02;;;;;;;17.50;9.10;;;;;;;;;;5060397;28;20097;-67
2022/03/29 04:53:28;;;;;;;16.73;8.95;;;;;;;;;;5060604;28;20043;-67
2022/03/29 04:55:56;;;;;;;13.65;8.95;;;;;;;;;;5094690;28;20052;-67
2022/03/29 04:58:24;;;;;;;12.57;9.10;;;;;;;;;;5094951;28;20482;-67
2022/03/29 05:00:51;;;;;;;13.23;8.85;;;;;;;;;;5059948;28;20177;-67
2022/03/29 05:03:17;;;;;;;19.63;9.63;;;;;;;;;;5076885;28;20437;-67
2022/03/29 05:05:44;;;;;;;18.75;9.52;;;;;;;;;;5060328;28;20482;-67
2022/03/29 05:08:11;;;;;;;17.10;9.20;;;;;;;;;;5094820;28;20052;-67
2022/03/29 05:10:38;;;;;;;16.52;11.15;;;;;;;;;;5094708;28;20121;-67
2022/03/29 05:13:04;;;;;;;19.17;9.85;;;;;;;;;;5094585;28;20051;-67
2022/03/29 05:15:31;;;;;;;19.65;9.77;;;;;;;;;;5076755;28;20172;-67
2022/03/29 05:17:57;;;;;;;13.48;8.82;;;;;;;;;;5076670;28;20052;-67
2022/03/29 05:20:24;;;;;;;15.43;8.90;;;;;;;;;;5076488;28;20052;-67
2022/03/29 05:22:52;;;;;;;15.30;8.93;;;;;;;;;;5094624;28;20465;-67
2022/03/29 05:25:21;;;;;;;15.95;9.50;;;;;;;;;;5060132;28;20100;-67
2022/03/29 05:27:49;;;;;;;17.05;9.20;;;;;;;;;;5060178;28;20056;-66
2022/03/29 05:30:17;;;;;;;17.48;10.43;;;;;;;;;;5076465;28;20048;-67
2022/03/29 05:32:43;;;;;;;15.75;9.70;;;;;;;;;;5075955;28;20117;-67
2022/03/29 05:35:11;;;;;;;18.73;9.32;;;;;;;;;;5091348;28;20071;-67
2022/03/29 05:37:39;;;;;;;16.15;9.02;;;;;;;;;;5057926;28;20075;-67
2022/03/29 05:40:07;;;;;;;15.02;9.43;;;;;;;;;;5074182;28;20124;-69
2022/03/29 05:42:41;;;;;;;13.75;9.65;;;;;;;;;;5074240;28;20075;-67
2022/03/29 05:45:09;;;;;;;20.95;9.55;;;;;;;;;;5057411;28;20494;-67
2022/03/29 05:50:21;;;;;;;21.15;9.57;;;;;;;;;;5091364;28;20040;-67
2022/03/29 05:52:48;;;;;;;17.92;10.15;;;;;;;;;;5073854;28;20055;-66
2022/03/29 05:55:15;;;;;;;17.27;9.63;;;;;;;;;;5073642;28;20067;-66
2022/03/29 05:57:42;;;;;;;17.48;9.77;;;;;;;;;;5073782;28;20048;-66
2022/03/29 06:00:10;;;;;;;14.73;9.63;;;;;;;;;;5073544;28;20052;-66
2022/03/29 06:02:37;;;;;;;20.52;11.77;;;;;;;;;;5073229;28;20597;-66
2022/03/29 06:05:05;;;;;;;21.05;12.25;;;;;;;;;;5091827;28;20063;-66
2022/03/29 06:07:32;;;;;;;23.65;10.80;;;;;;;;;;5057272;28;20054;-67
2022/03/29 06:09:58;;;;;;;19.05;11.00;;;;;;;;;;5091592;28;20047;-67
2022/03/29 06:12:25;;;;;;;17.17;10.80;;;;;;;;;;5090792;28;20048;-67
2022/03/29 06:14:51;;;;;;;17.58;11.23;;;;;;;;;;5073397;28;20059;-67
2022/03/29 06:17:18;;;;;;;16.92;10.18;;;;;;;;;;5073363;28;20052;-66
2022/03/29 06:19:45;;;;;;;16.27;10.52;;;;;;;;;;5091633;28;20052;-66
2022/03/29 06:22:12;;;;;;;17.20;10.50;;;;;;;;;;5073046;28;20047;-66
2022/03/29 06:24:39;;;;;;;17.42;10.15;;;;;;;;;;5091113;28;20051;-67
2022/03/29 06:27:06;;;;;;;21.80;11.07;;;;;;;;;;5056206;28;20055;-66
2022/03/29 06:29:34;;;;;;;18.55;10.77;;;;;;;;;;5056669;28;20571;-65
2022/03/29 06:32:01;;;;;;;17.45;10.52;;;;;;;;;;5073230;28;20048;-66
2022/03/29 06:34:29;;;;;;;21.20;10.38;;;;;;;;;;5090743;28;20433;-66
2022/03/29 06:36:56;;;;;;;16.95;11.23;;;;;;;;;;5067398;28;20051;-66
2022/03/29 06:39:22;;;;;;;25.77;11.07;;;;;;;;;;5090048;28;20043;-66
2022/03/29 06:41:50;;;;;;;18.55;10.60;;;;;;;;;;5072208;28;20056;-66
2022/03/29 06:44:22;;;;;;;20.88;11.00;;;;;;;;;;5073474;28;20082;-66
2022/03/29 06:46:49;;;;;;;20.48;9.95;;;;;;;;;;5072754;28;20067;-66
2022/03/29 06:49:16;;;;;;;16.67;10.73;;;;;;;;;;5073213;28;20048;-66
2022/03/29 06:51:44;;;;;;;17.38;10.10;;;;;;;;;;5069925;28;20048;-67
2022/03/29 06:54:11;;;;;;;20.33;9.75;;;;;;;;;;5023699;28;20459;-70
2022/03/29 06:56:38;;;;;;;18.60;9.77;;;;;;;;;;5055070;28;20481;-69
2022/03/29 06:59:04;;;;;;;18.88;10.73;;;;;;;;;;5060327;28;20410;-70
2022/03/29 07:01:31;;;;;;;20.83;10.18;;;;;;;;;;5073768;28;20044;-69
2022/03/29 07:03:59;;;;;;;21.90;11.13;;;;;;;;;;5070465;28;20072;-64
2022/03/29 07:06:30;;;;;;;27.02;11.68;;;;;;;;;;5085490;28;20395;-69
2022/03/29 07:12:01;;;;;;;;;;;;;;;;;;5047850;28;20486;-72
2022/03/29 07:14:28;;;;;;;17.10;10.55;;;;;;;;;;5054170;28;19920;-69
2022/03/29 07:16:55;;;;;;;20.60;11.18;;;;;;;;;;5076112;28;20040;-72
2022/03/29 07:19:23;;;;;;;20.38;11.38;;;;;;;;;;5057527;28;20048;-69
2022/03/29 07:21:50;;;;;;;20.60;11.15;;;;;;;;;;5074154;28;20048;-70
2022/03/29 07:24:17;;;;;;;20.80;10.90;;;;;;;;;;5074273;28;20105;-71
2022/03/29 07:26:44;;;;;;;16.38;10.40;;;;;;;;;;5063504;28;20040;-66
2022/03/29 07:29:15;;;;;;;25.42;10.77;;;;;;;;;;5081020;28;20051;-64
2022/03/29 07:31:42;;;;;;;21.70;11.02;;;;;;;;;;5067423;28;20051;-65
2022/03/29 07:34:09;;;;;;;31.35;11.43;;;;;;;;;;5057018;28;20084;-65
2022/03/29 07:36:36;;;;;;;17.70;10.68;;;;;;;;;;5091612;28;20490;-65
2022/03/29 07:39:03;;;;;;;18.15;10.25;;;;;;;;;;5073906;28;20071;-65
2022/03/29 07:41:32;;;;;;;19.25;11.43;;;;;;;;;;5073546;28;20440;-67
2022/03/29 07:43:59;;;;;;;19.65;11.15;;;;;;;;;;5057134;28;20056;-66
2022/03/29 07:46:25;;;;;;;19.95;11.05;;;;;;;;;;5073262;28;20141;-65
2022/03/29 07:48:52;;;;;;;19.75;10.55;;;;;;;;;;5073433;28;20052;-65
2022/03/29 07:51:39;;;;;;;21.70;11.48;;;;;;;;;;5072386;28;20052;-71
2022/03/29 07:54:05;;;;;;;16.45;10.25;;;;;;;;;;5061426;28;20049;-71
2022/03/29 07:56:32;;;;;;;20.25;11.02;;;;;;;;;;5075350;23;20074;-71
2022/03/29 07:58:59;;;;;;;21.95;12.02;;;;;;;;;;5073904;28;20055;-72
2022/03/29 08:01:28;;;;;;;22.98;11.63;;;;;;;;;;5091551;28;20044;-66
2022/03/29 08:03:55;;;;;;;23.00;12.10;;;;;;;;;;5091476;28;20134;-71
2022/03/29 08:06:22;;;;;;;25.05;12.68;;;;;;;;;;5091628;28;20056;-72
2022/03/29 08:08:49;;;;;;;22.30;11.70;;;;;;;;;;5073393;28;20101;-72
2022/03/29 08:11:16;;;;;;;23.45;12.15;;;;;;;;;;5091218;28;20059;-66
2022/03/29 08:13:43;;;;;;;21.88;13.10;;;;;;;;;;5094043;28;20052;-71
2022/03/29 08:16:09;;;;;;;34.53;14.00;;;;;;;;;;5095890;28;20056;-70
2022/03/29 08:18:38;;;;;;;28.40;13.50;;;;;;;;;;5095582;28;20063;-66
2022/03/29 08:21:47;;;;;;;23.65;12.88;;;;;;;;;;5094948;28;20135;-66
2022/03/29 08:23:52;;;;;;;27.98;13.90;;;;;;;;;;5095483;28;20512;-66
2022/03/29 08:26:19;;;;;;;26.33;13.52;;;;;;;;;;5095486;28;20044;-66
2022/03/29 08:28:46;;;;;;;25.70;12.82;;;;;;;;;;5095827;28;20097;-65
2022/03/29 08:31:13;;;;;;;21.35;11.75;;;;;;;;;;5095580;28;20556;-64
2022/03/29 08:33:39;;;;;;;23.02;12.45;;;;;;;;;;5088350;28;20074;-64
2022/03/29 08:36:06;;;;;;;23.30;12.18;;;;;;;;;;5085631;28;20101;-64
2022/03/29 08:38:32;;;;;;;19.55;12.38;;;;;;;;;;5094121;28;20568;-64
2022/03/29 08:40:59;;;;;;;21.95;12.20;;;;;;;;;;5095448;28;20105;-64
2022/03/29 08:43:29;;;;;;;20.90;11.98;;;;;;;;;;5101820;28;20048;-64
2022/03/29 08:45:56;;;;;;;20.80;12.27;;;;;;;;;;5099893;28;20044;-64
2022/03/29 08:48:25;;;;;;;22.45;12.95;;;;;;;;;;5098636;28;20067;-64
2022/03/29 08:50:52;;;;;;;21.30;12.85;;;;;;;;;;5097599;28;20055;-64
2022/03/29 08:53:32;;;;;;;26.00;12.75;;;;;;;;;;5097745;28;20060;-64
2022/03/29 08:55:59;;;;;;;21.17;11.70;;;;;;;;;;5062389;28;20048;-64
2022/03/29 08:58:26;;;;;;;23.67;12.18;;;;;;;;;;5098259;28;20074;-64
2022/03/29 09:00:53;;;;;;;20.58;12.50;;;;;;;;;;5097419;28;20121;-64
2022/03/29 09:03:20;;;;;;;23.40;13.38;;;;;;;;;;5098208;28;20524;-64
2022/03/29 09:05:49;;;;;;;22.38;12.63;;;;;;;;;;5097700;28;20477;-64
2022/03/29 09:08:16;;;;;;;26.38;13.18;;;;;;;;;;5061867;28;20052;-64
2022/03/29 09:10:54;;;;;;;20.95;11.95;;;;;;;;;;5094848;28;20052;-64
2022/03/29 09:13:27;;;;;;;19.92;11.82;;;;;;;;;;5094841;28;20048;-64
2022/03/29 09:15:57;;;;;;;21.95;11.63;;;;;;;;;;5094656;28;20055;-65
2022/03/29 09:18:25;;;;;;;20.45;12.18;;;;;;;;;;5094739;28;20047;-64
2022/03/29 09:21:05;;;;;;;19.48;12.50;;;;;;;;;;5094584;28;20048;-64
2022/03/29 09:23:34;;;;;;;23.35;12.75;;;;;;;;;;5094628;28;20121;-64
2022/03/29 09:26:01;;;;;;;27.88;12.18;;;;;;;;;;5093739;28;20047;-64
2022/03/29 09:28:36;;;;;;;21.48;12.45;;;;;;;;;;5095303;28;20039;-64
2022/03/29 09:31:24;;;;;;;21.75;11.82;;;;;;;;;;5094460;28;20119;-64
2022/03/29 09:33:51;;;;;;;19.40;10.45;;;;;;;;;;5079397;28;20105;-67
2022/03/29 09:36:20;;;;;;;20.83;11.05;;;;;;;;;;5094355;28;20043;-65
2022/03/29 09:38:48;;;;;;;18.88;10.73;;;;;;;;;;5094376;28;20464;-65
2022/03/29 09:41:26;;;;;;;19.70;12.10;;;;;;;;;;5094070;28;20051;-65
2022/03/29 09:44:07;;;;;;;18.05;11.07;;;;;;;;;;5094134;28;20079;-65
2022/03/29 09:47:02;;;;;;;18.95;12.65;;;;;;;;;;5094264;28;20117;-65
2022/03/29 09:49:50;;;;;;;17.92;11.90;;;;;;;;;;5094378;28;20367;-65
2022/03/29 09:52:18;;;;;;;19.92;11.73;;;;;;;;;;5093918;28;20494;-65
2022/03/29 09:55:04;;;;;;;19.75;11.98;;;;;;;;;;5093679;28;20082;-65
2022/03/29 09:57:38;;;;;;;18.80;11.85;;;;;;;;;;5094054;28;20051;-65
2022/03/29 10:00:07;;;;;;;20.25;13.18;;;;;;;;;;5094162;28;20048;-66
2022/03/29 10:02:40;;;;;;;19.02;11.50;;;;;;;;;;5093823;28;20101;-65
2022/03/29 10:05:10;;;;;;;21.70;11.88;;;;;;;;;;5093915;28;20055;-65
2022/03/29 10:07:45;;;;;;;25.05;13.00;;;;;;;;;;5076315;28;20477;-65
2022/03/29 10:10:12;;;;;;;33.50;19.23;;;;;;;;;;5075462;28;20059;-64
2022/03/29 10:12:39;;;;;;;21.42;12.38;;;;;;;;;;5093590;28;20044;-65
2022/03/29 10:15:26;;;;;;;21.55;11.68;;;;;;;;;;5093432;28;20076;-65
2022/03/29 10:17:55;;;;;;;24.33;12.77;;;;;;;;;;5075980;28;20052;-65
2022/03/29 10:20:21;;;;;;;18.40;12.07;;;;;;;;;;5059071;28;20445;-65
2022/03/29 10:22:48;;;;;;;19.17;11.60;;;;;;;;;;5075509;28;20094;-65
2022/03/29 10:25:15;;;;;;;20.63;11.68;;;;;;;;;;5075352;28;20105;-65
2022/03/29 10:27:42;;;;;;;18.90;12.63;;;;;;;;;;5093517;28;20097;-65
2022/03/29 10:30:09;;;;;;;19.23;11.73;;;;;;;;;;5058898;28;20059;-65
2022/03/29 10:32:36;;;;;;;21.52;12.30;;;;;;;;;;5075185;28;20051;-65
2022/03/29 10:35:09;;;;;;;21.08;11.65;;;;;;;;;;5093344;28;20044;-65
2022/03/29 10:38:05;;;;;;;20.83;11.77;;;;;;;;;;5092299;28;20052;-65
2022/03/29 10:40:39;;;;;;;25.10;13.98;;;;;;;;;;5075921;28;20106;-65
2022/03/29 10:43:28;;;;;;;20.65;12.68;;;;;;;;;;5092727;28;20089;-65
2022/03/29 10:45:56;;;;;;;20.98;11.63;;;;;;;;;;5092886;28;20055;-65
2022/03/29 10:48:23;;;;;;;18.02;11.70;;;;;;;;;;5075383;28;20058;-65
2022/03/29 10:50:57;;;;;;;18.98;10.70;;;;;;;;;;5092629;28;20082;-65
2022/03/29 10:53:34;;;;;;;19.10;11.73;;;;;;;;;;5092814;28;20044;-65
2022/03/29 10:56:15;;;;;;;18.02;11.45;;;;;;;;;;5092517;28;20109;-65
2022/03/29 10:59:00;;;;;;;21.60;11.20;;;;;;;;;;5092835;28;20052;-65
2022/03/29 11:01:27;;;;;;;16.10;11.67;;;;;;;;;;5092396;28;20051;-65
2022/03/29 11:04:03;;;;;;;20.38;12.25;;;;;;;;;;5092642;28;20052;-65
2022/03/29 11:06:30;;;;;;;19.83;11.18;;;;;;;;;;5092651;28;20136;-66
2022/03/29 11:09:05;;;;;;;17.33;11.35;;;;;;;;;;5074594;28;20509;-65
2022/03/29 11:11:47;;;;;;;19.73;12.82;;;;;;;;;;5092366;28;20044;-65
2022/03/29 11:14:30;;;;;;;20.97;12.47;;;;;;;;;;5092920;28;20056;-65
2022/03/29 11:17:09;;;;;;;;;;;;;;;;;;5093064;28;20282;-65
2022/03/29 11:19:46;;;;;;;18.00;11.35;;;;;;;;;;5092429;28;19920;-65
2022/03/29 11:22:23;;;;;;;19.75;11.32;;;;;;;;;;5092303;28;20044;-65
2022/03/29 11:24:53;;;;;;;20.02;12.52;;;;;;;;;;5092428;28;20408;-66
2022/03/29 11:27:28;;;;;;;23.70;12.40;;;;;;;;;;5092207;28;20059;-65
2022/03/29 11:29:55;;;;;;;22.02;13.18;;;;;;;;;;5090506;28;20089;-65
2022/03/29 11:32:22;;;;;;;21.92;12.02;;;;;;;;;;5089015;28;20097;-66
2022/03/29 11:34:55;;;;;;;21.10;12.70;;;;;;;;;;5091895;28;20044;-65
2022/03/29 11:37:43;;;;;;;22.08;13.57;;;;;;;;;;5065441;28;20494;-68
2022/03/29 11:40:29;;;;;;;20.47;12.43;;;;;;;;;;5111351;28;20028;-68
2022/03/29 11:42:59;;;;;;;20.33;12.63;;;;;;;;;;5099720;28;20333;-65
2022/03/29 11:45:27;;;;;;;20.42;13.30;;;;;;;;;;5114965;28;20052;-69
2022/03/29 11:48:00;;;;;;;23.08;14.02;;;;;;;;;;5117585;28;20044;-68
2022/03/29 11:50:48;;;;;;;23.70;14.32;;;;;;;;;;5117931;28;20053;-69
2022/03/29 11:53:23;;;;;;;22.20;14.48;;;;;;;;;;5116871;28;20131;-69
2022/03/29 11:55:56;;;;;;;21.30;13.50;;;;;;;;;;5094775;28;20051;-68
2022/03/29 11:58:44;;;;;;;21.52;13.52;;;;;;;;;;5111429;28;20078;-71
2022/03/29 12:01:20;;;;;;;22.52;14.00;;;;;;;;;;5114650;28;20054;-70
2022/03/29 12:03:47;;;;;;;27.40;15.13;;;;;;;;;;5093682;28;20044;-64
2022/03/29 12:06:16;;;;;;;24.70;14.90;;;;;;;;;;5090785;28;20131;-65
2022/03/29 12:08:48;;;;;;;21.58;14.63;;;;;;;;;;5090383;28;20101;-65
2022/03/29 12:11:16;;;;;;;21.58;14.73;;;;;;;;;;5092188;28;20047;-71
2022/03/29 12:13:45;;;;;;;22.63;14.55;;;;;;;;;;5090224;28;20615;-69
2022/03/29 12:16:22;;;;;;;27.30;16.25;;;;;;;;;;5090510;28;20044;-69
2022/03/29 12:18:50;;;;;;;28.10;15.35;;;;;;;;;;5090267;28;20499;-69
2022/03/29 12:21:19;;;;;;;28.02;15.48;;;;;;;;;;5091410;28;20044;-70
2022/03/29 12:24:06;;;;;;;26.67;14.75;;;;;;;;;;5091343;28;20556;-70
2022/03/29 12:26:33;;;;;;;27.70;16.63;;;;;;;;;;5091509;28;20105;-69
2022/03/29 12:29:00;;;;;;;24.90;15.27;;;;;;;;;;5073619;28;20517;-69
2022/03/29 12:31:28;;;;;;;25.88;14.93;;;;;;;;;;5073440;28;20048;-70
2022/03/29 12:33:55;;;;;;;25.88;14.40;;;;;;;;;;5091348;28;20123;-68
2022/03/29 12:36:22;;;;;;;22.95;14.70;;;;;;;;;;5057008;28;20105;-68
2022/03/29 12:38:51;;;;;;;26.63;15.88;;;;;;;;;;5091619;28;20093;-70
2022/03/29 12:41:41;;;;;;;25.35;15.88;;;;;;;;;;5073357;28;20052;-69
2022/03/29 12:44:09;;;;;;;25.30;16.27;;;;;;;;;;5091508;28;20052;-70
2022/03/29 12:46:38;;;;;;;28.50;15.73;;;;;;;;;;5091182;28;20098;-70
2022/03/29 12:49:06;;;;;;;27.27;16.27;;;;;;;;;;5091424;28;20185;-71
2022/03/29 12:51:37;;;;;;;24.00;15.52;;;;;;;;;;5056523;28;20048;-70
2022/03/29 12:54:09;;;;;;;23.85;14.57;;;;;;;;;;5073566;28;20113;-69
2022/03/29 12:56:38;;;;;;;26.77;14.93;;;;;;;;;;5090933;28;20056;-66
2022/03/29 12:59:25;;;;;;;24.20;14.70;;;;;;;;;;5091022;28;20325;-66
2022/03/29 13:01:52;;;;;;;24.17;15.43;;;;;;;;;;5089259;28;20061;-67
2022/03/29 13:04:19;;;;;;;23.90;14.73;;;;;;;;;;5094811;28;20052;-66
2022/03/29 13:06:48;;;;;;;24.65;14.45;;;;;;;;;;5094800;28;20048;-65
2022/03/29 13:09:16;;;;;;;27.30;15.57;;;;;;;;;;5077121;28;20044;-66
2022/03/29 13:11:42;;;;;;;23.88;15.00;;;;;;;;;;5094673;28;20536;-67
2022/03/29 13:14:10;;;;;;;27.45;14.88;;;;;;;;;;5095049;28;20044;-67
2022/03/29 13:16:50;;;;;;;23.50;14.95;;;;;;;;;;5094827;28;20098;-67
2022/03/29 13:19:17;;;;;;;25.13;14.68;;;;;;;;;;5094865;28;20083;-65
2022/03/29 13:21:45;;;;;;;24.60;15.23;;;;;;;;;;5094652;28;20059;-66
2022/03/29 13:24:16;;;;;;;25.25;14.48;;;;;;;;;;5077001;28;20495;-66
2022/03/29 13:26:48;;;;;;;27.77;15.15;;;;;;;;;;5094575;28;20047;-65
2022/03/29 13:29:16;;;;;;;27.45;15.50;;;;;;;;;;5094709;28;20044;-66
2022/03/29 13:31:44;;;;;;;27.30;15.23;;;;;;;;;;5094262;28;20114;-65
2022/03/29 13:34:13;;;;;;;24.25;14.70;;;;;;;;;;5094457;28;20051;-66
2022/03/29 13:36:41;;;;;;;23.95;15.23;;;;;;;;;;5091973;28;20059;-65
2022/03/29 13:39:09;;;;;;;24.80;15.27;;;;;;;;;;5093597;28;20048;-67
2022/03/29 13:41:56;;;;;;;28.23;15.73;;;;;;;;;;5081966;28;20048;-67
2022/03/29 13:44:23;;;;;;;27.60;15.82;;;;;;;;;;5096602;28;20067;-66
2022/03/29 13:46:50;;;;;;;23.80;14.40;;;;;;;;;;5096346;28;20048;-67
2022/03/29 13:49:19;;;;;;;28.38;14.18;;;;;;;;;;5092999;28;20048;-67
2022/03/29 13:51:46;;;;;;;24.90;15.10;;;;;;;;;;5094479;28;20051;-66
2022/03/29 13:54:12;;;;;;;27.23;15.82;;;;;;;;;;5093296;28;20036;-65
2022/03/29 13:56:39;;;;;;;25.67;15.05;;;;;;;;;;5074173;28;20055;-66
2022/03/29 13:59:06;;;;;;;26.08;15.88;;;;;;;;;;5091999;28;20534;-67
2022/03/29 14:01:34;;;;;;;30.05;15.40;;;;;;;;;;5091565;28;20101;-67
2022/03/29 14:04:05;;;;;;;25.15;15.18;;;;;;;;;;5091990;28;20055;-66
2022/03/29 14:06:33;;;;;;;29.25;15.85;;;;;;;;;;5092081;28;20593;-67
2022/03/29 14:09:00;;;;;;;29.10;15.20;;;;;;;;;;5074197;28;20048;-67
2022/03/29 14:11:27;;;;;;;26.52;14.63;;;;;;;;;;5091963;28;20632;-67
2022/03/29 14:13:53;;;;;;;25.58;15.82;;;;;;;;;;5092616;28;20448;-65
2022/03/29 14:16:23;;;;;;;26.95;14.48;;;;;;;;;;5092733;28;20410;-66
2022/03/29 14:18:53;;;;;;;26.50;15.27;;;;;;;;;;5077161;28;20051;-66
2022/03/29 14:21:19;;;;;;;24.30;15.07;;;;;;;;;;5095709;28;20063;-67
2022/03/29 14:23:46;;;;;;;24.83;14.77;;;;;;;;;;5077814;28;20048;-66
2022/03/29 14:26:16;;;;;;;25.27;13.85;;;;;;;;;;5098279;28;20044;-66
2022/03/29 14:28:43;;;;;;;34.90;16.20;;;;;;;;;;5097709;28;20070;-66
2022/03/29 14:31:10;;;;;;;25.20;15.13;;;;;;;;;;5079446;28;20048;-66
2022/03/29 14:33:38;;;;;;;28.25;14.75;;;;;;;;;;5098283;28;20059;-68
2022/03/29 14:36:06;;;;;;;25.08;14.32;;;;;;;;;;5097742;28;20075;-66
2022/03/29 14:38:33;;;;;;;30.75;15.60;;;;;;;;;;5098687;28;20056;-66
2022/03/29 14:41:21;;;;;;;29.45;15.30;;;;;;;;;;5079783;28;20105;-66
2022/03/29 14:43:48;;;;;;;25.55;14.30;;;;;;;;;;5094327;28;20051;-66